Terminal Aerodrome Forecast
Issued by NWS

Home | Current Version | Previous Version | Text Only | Print | Product List | Glossary On
Versions: 1 2 3 4 5 6 7 8 9 10 11 12 13 14 15 16
180
FTUS44 KCRP 270531
TAFALI
TAF
KALI 270531Z 2706/2806 13005KT P6SM FEW015 SCT150
      TEMPO 2710/2714 5SM BR
     FM271500 17010KT P6SM FEW030 SCT150
     FM271800 15012KT P6SM VCTS SCT050CB BKN150
     FM272300 13014KT P6SM FEW040 SCT150
     FM280100 14009KT P6SM FEW150=

USA.gov is the U.S. government's official web portal to all federal, state and local government web resources and services.